Terminal Aerodrome Forecast
Issued by NWS

Home | Current Version | Previous Version | Text Only | Print | Product List | Glossary On
Versions: 1 2 3 4 5 6 7 8 9 10 11 12 13 14 15 16 17 18
000
FTUS42 KFFC 250500
TAFFTY
TAF
KFTY 250537Z 2506/2606 18005KT P6SM BKN070
     FM250800 21007KT P6SM VCSH SCT012 BKN050 OVC070
     FM251000 22007KT P6SM VCSH BKN012 OVC050
      TEMPO 2510/2513 5SM SHRA BR
     FM251500 24010G20KT P6SM BKN035
     FM252000 28012KT P6SM SCT045
     FM260200 32008KT P6SM SKC=

USA.gov is the U.S. government's official web portal to all federal, state and local government web resources and services.